Time;durP1;ratioP1;P1;durP2;ratioP2;P2;SDS_P1;SDS_P2;PMS_P1;PMS_P2;Temp;Humidity;BMP_temperature;BMP_pressure;BME280_temperature;BME280_humidity;BME280_pressure;Samples;Min_cycle;Max_cycle;Signal;HPM_P1;HPM_P2
2022/08/21 00:00:23;;;;;;;7.95;3.45;;;;;;;17.64;100.00;101674.06;4905555;29;20062;-60
2022/08/21 00:03:02;;;;;;;6.75;3.50;;;;;;;17.59;100.00;101674.59;4894001;29;20055;-60
2022/08/21 00:05:30;;;;;;;5.75;3.60;;;;;;;17.49;100.00;101671.31;4903119;29;20060;-59
2022/08/21 00:07:56;;;;;;;6.57;3.83;;;;;;;17.43;100.00;101672.00;4896714;29;20052;-60
2022/08/21 00:10:23;;;;;;;6.68;3.97;;;;;;;17.37;100.00;101663.72;4910614;29;20524;-59
2022/08/21 00:12:50;;;;;;;6.75;3.85;;;;;;;17.36;100.00;101664.72;4895680;29;20048;-59
2022/08/21 00:15:21;;;;;;;8.38;3.95;;;;;;;17.37;100.00;101668.22;4901510;29;20056;-60
2022/08/21 00:17:48;;;;;;;7.35;4.10;;;;;;;17.32;100.00;101667.88;4902509;29;20095;-61
2022/08/21 00:20:17;;;;;;;8.70;4.22;;;;;;;17.34;100.00;101671.19;4908302;29;20056;-61
2022/08/21 00:22:45;;;;;;;7.65;4.55;;;;;;;17.29;100.00;101657.59;4903407;29;20564;-57
2022/08/21 00:25:14;;;;;;;10.63;4.82;;;;;;;17.25;100.00;101662.44;4895020;29;20060;-60
2022/08/21 00:27:42;;;;;;;8.73;4.22;;;;;;;17.23;100.00;101659.13;4907719;29;20055;-60
2022/08/21 00:30:10;;;;;;;6.57;4.25;;;;;;;17.25;100.00;101659.81;4896362;29;20056;-59
2022/08/21 00:32:46;;;;;;;8.15;4.47;;;;;;;17.18;100.00;101653.50;4903579;29;20052;-59
2022/08/21 00:35:15;;;;;;;9.13;4.88;;;;;;;17.17;100.00;101662.44;4900288;29;20086;-59
2022/08/21 00:37:42;;;;;;;8.13;4.53;;;;;;;17.10;100.00;101662.31;4899995;29;20048;-59
2022/08/21 00:40:15;;;;;;;7.32;4.50;;;;;;;17.13;100.00;101655.81;4900707;29;20062;-60
2022/08/21 00:42:43;;;;;;;7.68;3.80;;;;;;;17.13;100.00;101656.69;4895699;29;20072;-60
2022/08/21 00:45:18;;;;;;;7.93;4.28;;;;;;;17.09;100.00;101655.38;4900542;29;20103;-60
2022/08/21 00:47:45;;;;;;;5.05;3.90;;;;;;;17.10;100.00;101656.19;4898083;29;20048;-60
2022/08/21 00:50:12;;;;;;;6.55;3.65;;;;;;;17.07;100.00;101657.34;4898465;29;20084;-60
2022/08/21 00:52:49;;;;;;;7.25;4.18;;;;;;;17.08;100.00;101663.47;4892983;29;20048;-60
2022/08/21 00:55:17;;;;;;;11.23;4.30;;;;;;;17.01;100.00;101655.34;4894586;29;20083;-61
2022/08/21 00:57:50;;;;;;;7.57;4.00;;;;;;;17.00;100.00;101659.84;4901419;29;20079;-60
2022/08/21 01:00:22;;;;;;;6.82;4.07;;;;;;;16.98;100.00;101659.19;4905204;29;20062;-60
2022/08/21 01:02:48;;;;;;;8.02;3.80;;;;;;;16.88;100.00;101652.41;4905588;29;20055;-61
2022/08/21 01:05:16;;;;;;;7.28;3.72;;;;;;;16.88;100.00;101655.88;4895766;29;20528;-60
2022/08/21 01:07:44;;;;;;;7.53;3.88;;;;;;;16.83;100.00;101650.25;4905190;29;20048;-60
2022/08/21 01:10:12;;;;;;;7.65;3.70;;;;;;;16.87;100.00;101646.28;4896072;29;20070;-60
2022/08/21 01:12:52;;;;;;;9.60;4.22;;;;;;;16.85;100.00;101644.78;4908223;29;20131;-60
2022/08/21 01:15:20;;;;;;;6.53;3.60;;;;;;;16.75;100.00;101637.00;4892055;29;20076;-61
2022/08/21 01:17:48;;;;;;;6.93;4.38;;;;;;;16.70;100.00;101644.59;4899931;29;20110;-60
2022/08/21 01:20:16;;;;;;;8.10;3.80;;;;;;;16.68;100.00;101647.44;4897713;29;20434;-60
2022/08/21 01:22:42;;;;;;;5.93;3.88;;;;;;;16.63;100.00;101652.41;4899733;29;20056;-60
2022/08/21 01:25:13;;;;;;;8.18;4.35;;;;;;;16.64;100.00;101654.06;4905046;29;20071;-60
2022/08/21 01:27:39;;;;;;;8.30;4.40;;;;;;;16.57;100.00;101658.34;4897587;29;20497;-60
2022/08/21 01:30:19;;;;;;;9.90;4.22;;;;;;;16.57;100.00;101658.34;4901082;29;20056;-60
2022/08/21 01:32:47;;;;;;;6.65;3.65;;;;;;;16.51;100.00;101651.06;4893097;29;20135;-60
2022/08/21 01:35:16;;;;;;;6.78;4.32;;;;;;;16.50;100.00;101652.88;4904308;29;20060;-60
2022/08/21 01:37:42;;;;;;;7.82;4.20;;;;;;;16.43;100.00;101654.53;4899505;29;20052;-60
2022/08/21 01:40:10;;;;;;;7.20;4.13;;;;;;;16.44;100.00;101658.00;4900011;29;20104;-61
2022/08/21 01:42:38;;;;;;;12.18;4.32;;;;;;;16.44;100.00;101653.53;4904265;29;20268;-60
2022/08/21 01:45:06;;;;;;;7.22;4.20;;;;;;;16.45;100.00;101651.75;4887598;29;20055;-61
2022/08/21 01:47:32;;;;;;;7.57;3.92;;;;;;;16.41;100.00;101659.19;4901268;29;20602;-61
2022/08/21 01:49:59;;;;;;;7.35;4.10;;;;;;;16.38;100.00;101654.19;4900793;29;20497;-60
2022/08/21 01:52:26;;;;;;;5.90;3.80;;;;;;;16.33;100.00;101652.06;4907253;29;20072;-61
2022/08/21 01:54:52;;;;;;;8.00;3.90;;;;;;;16.32;100.00;101657.50;4901474;29;20067;-59
2022/08/21 01:57:21;;;;;;;;;;;;;;;16.35;100.00;101657.19;4900081;29;20142;-61
2022/08/21 01:59:52;;;;;;;6.90;4.53;;;;;;;16.28;100.00;101656.19;4902765;29;19927;-61
2022/08/21 02:02:19;;;;;;;7.30;4.38;;;;;;;16.20;100.00;101647.22;4890177;29;20056;-61
2022/08/21 02:04:45;;;;;;;8.88;4.43;;;;;;;16.21;100.00;101646.25;4907980;29;20049;-61
2022/08/21 02:07:12;;;;;;;6.85;4.28;;;;;;;16.18;100.00;101646.56;4898334;29;20062;-61
2022/08/21 02:09:38;;;;;;;9.30;4.72;;;;;;;16.14;100.00;101645.25;4908307;29;20485;-60
2022/08/21 02:12:05;;;;;;;6.93;3.80;;;;;;;16.15;100.00;101638.13;4895524;29;20894;-59
2022/08/21 02:14:32;;;;;;;6.70;4.13;;;;;;;16.14;100.00;101642.59;4901081;29;20748;-60
2022/08/21 02:16:59;;;;;;;9.05;4.60;;;;;;;16.19;100.00;101642.09;4906968;29;20696;-60
2022/08/21 02:19:35;;;;;;;9.75;4.18;;;;;;;16.19;100.00;101642.94;4902029;29;20052;-58
2022/08/21 02:22:05;;;;;;;9.18;4.50;;;;;;;16.17;100.00;101638.78;4908881;29;20078;-60
2022/08/21 02:24:32;;;;;;;6.53;4.30;;;;;;;16.18;100.00;101633.34;4903837;29;20059;-59
2022/08/21 02:26:59;;;;;;;8.00;4.35;;;;;;;16.14;100.00;101626.72;4902979;29;20501;-60
2022/08/21 02:29:25;;;;;;;9.65;4.47;;;;;;;16.13;100.00;101621.56;4894973;29;20112;-60
2022/08/21 02:31:52;;;;;;;6.32;3.72;;;;;;;16.13;100.00;101629.50;4906934;29;20067;-59
2022/08/21 02:34:19;;;;;;;6.78;3.65;;;;;;;16.10;100.00;101627.22;4909358;29;20062;-60
2022/08/21 02:36:45;;;;;;;6.57;3.60;;;;;;;16.10;100.00;101628.03;4904172;29;20149;-60
2022/08/21 02:39:24;;;;;;;5.43;3.30;;;;;;;16.12;100.00;101631.34;4895923;29;20951;-60
2022/08/21 02:41:52;;;;;;;6.97;3.33;;;;;;;16.05;100.00;101626.88;4896594;29;20505;-58
2022/08/21 02:44:19;;;;;;;6.50;3.45;;;;;;;16.02;100.00;101623.56;4903155;29;20062;-59
2022/08/21 02:46:45;;;;;;;5.47;3.08;;;;;;;16.00;100.00;101620.25;4901980;29;20062;-60
2022/08/21 02:49:11;;;;;;;7.63;3.80;;;;;;;15.95;100.00;101619.88;4907650;29;20059;-60
2022/08/21 02:51:38;;;;;;;8.73;4.10;;;;;;;15.94;100.00;101623.53;4907085;29;20055;-60
2022/08/21 02:54:04;;;;;;;8.85;3.70;;;;;;;15.91;100.00;101621.22;4899833;29;20049;-59
2022/08/21 02:56:31;;;;;;;7.20;3.80;;;;;;;15.90;100.00;101624.03;4905149;29;20060;-60
2022/08/21 02:58:57;;;;;;;5.75;3.80;;;;;;;15.89;100.00;101622.38;4898941;29;20059;-60
2022/08/21 03:01:24;;;;;;;6.85;4.22;;;;;;;15.85;100.00;101623.69;4906890;29;20048;-59
2022/08/21 03:03:51;;;;;;;7.80;3.72;;;;;;;15.81;100.00;101624.00;4893970;29;20047;-60
2022/08/21 03:06:20;;;;;;;7.55;4.38;;;;;;;15.81;100.00;101615.22;4905397;29;20056;-60
2022/08/21 03:08:46;;;;;;;8.63;4.20;;;;;;;15.74;100.00;101624.78;4909665;29;20501;-59
2022/08/21 03:11:15;;;;;;;6.22;3.70;;;;;;;15.73;100.00;101618.69;4894380;29;20056;-60
2022/08/21 03:13:42;;;;;;;9.60;4.47;;;;;;;15.70;100.00;101621.63;4908444;29;20052;-59
2022/08/21 03:16:08;;;;;;;7.72;4.40;;;;;;;15.71;100.00;101619.81;4900298;29;20056;-60
2022/08/21 03:18:36;;;;;;;8.60;4.35;;;;;;;15.68;100.00;101609.53;4895877;29;20148;-60
2022/08/21 03:21:03;;;;;;;5.80;4.15;;;;;;;15.69;100.00;101619.16;4897905;29;20079;-60
2022/08/21 03:23:30;;;;;;;9.10;4.18;;;;;;;15.65;100.00;101621.28;4898041;29;20072;-62
2022/08/21 03:25:58;;;;;;;7.15;3.67;;;;;;;15.61;100.00;101612.00;4902131;29;20144;-60
2022/08/21 03:28:25;;;;;;;6.93;4.07;;;;;;;15.59;100.00;101604.22;4897586;29;20446;-59
2022/08/21 03:30:52;;;;;;;5.55;3.92;;;;;;;15.62;100.00;101608.34;4905899;29;20048;-60
2022/08/21 03:33:19;;;;;;;5.22;3.63;;;;;;;15.58;100.00;101607.03;4890124;29;20052;-60
2022/08/21 03:35:56;;;;;;;5.32;3.63;;;;;;;15.59;100.00;101608.69;4907807;29;20063;-60
2022/08/21 03:38:23;;;;;;;6.95;3.92;;;;;;;15.52;100.00;101608.50;4894976;29;20060;-59
2022/08/21 03:40:52;;;;;;;6.80;4.30;;;;;;;15.55;100.00;101615.28;4907819;29;20063;-60
2022/08/21 03:43:19;;;;;;;10.65;4.63;;;;;;;15.49;100.00;101608.00;4892390;29;20147;-60
2022/08/21 03:45:46;;;;;;;8.73;4.65;;;;;;;15.43;100.00;101614.75;4895547;29;20054;-60
2022/08/21 03:48:12;;;;;;;9.20;4.40;;;;;;;15.43;100.00;101606.81;4909069;29;20074;-60
2022/08/21 03:50:42;;;;;;;6.53;4.45;;;;;;;15.43;100.00;101607.66;4897958;29;20048;-60
2022/08/21 03:53:10;;;;;;;10.95;5.00;;;;;;;15.43;100.00;101612.94;4896464;29;20425;-60
2022/08/21 03:55:45;;;;;;;10.15;4.68;;;;;;;15.44;100.00;101605.81;4901562;29;20056;-59
2022/08/21 03:58:13;;;;;;;8.00;4.20;;;;;;;15.38;100.00;101612.56;4897742;29;20105;-59
2022/08/21 04:00:43;;;;;;;6.43;4.50;;;;;;;15.33;100.00;101612.22;4896992;29;20490;-60
2022/08/21 04:03:09;;;;;;;10.35;4.38;;;;;;;15.36;100.00;101611.06;4902844;29;20051;-59
2022/08/21 04:05:37;;;;;;;5.70;3.83;;;;;;;15.35;100.00;101612.91;4908428;29;20138;-60
2022/08/21 04:08:05;;;;;;;6.78;4.35;;;;;;;15.40;100.00;101613.22;4899348;29;20052;-60
2022/08/21 04:10:34;;;;;;;8.32;5.35;;;;;;;15.39;100.00;101608.13;4903035;29;20156;-60
2022/08/21 04:13:00;;;;;;;8.70;4.93;;;;;;;15.37;100.00;101599.53;4891818;28;20069;-59
2022/08/21 04:15:27;;;;;;;6.40;4.40;;;;;;;15.45;100.00;101610.13;4906796;29;20056;-60
2022/08/21 04:17:54;;;;;;;7.70;4.90;;;;;;;15.42;100.00;101605.97;4890961;29;20048;-60
2022/08/21 04:20:22;;;;;;;6.70;4.45;;;;;;;15.37;100.00;101600.34;4905894;29;20056;-60
2022/08/21 04:22:50;;;;;;;7.85;5.05;;;;;;;15.32;100.00;101600.00;4899407;29;20051;-59
2022/08/21 04:25:18;;;;;;;7.70;4.85;;;;;;;15.31;100.00;101600.13;4896204;29;20814;-59
2022/08/21 04:27:45;;;;;;;7.85;4.47;;;;;;;15.30;100.00;101598.50;4896333;29;20048;-59
2022/08/21 04:30:14;;;;;;;7.82;4.43;;;;;;;15.30;100.00;101596.69;4897386;29;20062;-60
2022/08/21 04:32:46;;;;;;;11.20;4.55;;;;;;;15.31;100.00;101603.63;4901323;29;20097;-60
2022/08/21 04:35:17;;;;;;;6.13;4.70;;;;;;;15.23;100.00;101599.13;4893088;29;20500;-60
2022/08/21 04:37:43;;;;;;;;;;;;;;;15.27;100.00;101607.59;4903548;29;20405;-60
2022/08/21 04:40:12;;;;;;;8.05;4.05;;;;;;;15.29;100.00;101594.19;4904999;29;19923;-60
2022/08/21 04:42:50;;;;;;;7.75;5.00;;;;;;;15.28;100.00;101597.84;4899517;29;20647;-60
2022/08/21 04:45:29;;;;;;;9.68;4.95;;;;;;;15.31;100.00;101597.50;4905583;29;20087;-60
2022/08/21 04:47:58;;;;;;;9.82;5.03;;;;;;;15.26;100.00;101595.34;4898111;29;20418;-60
2022/08/21 04:51:00;;;;;;;8.52;5.28;;;;;;;15.28;100.00;101601.28;4907197;29;20052;-60
2022/08/21 04:53:33;;;;;;;7.03;4.63;;;;;;;15.26;100.00;101597.16;4872251;29;20071;-59
2022/08/21 04:56:07;;;;;;;7.93;4.80;;;;;;;15.22;100.00;101605.41;4905130;29;20047;-59
2022/08/21 04:58:34;;;;;;;7.82;5.13;;;;;;;15.16;100.00;101606.03;4892810;29;20510;-60
2022/08/21 05:01:03;;;;;;;7.75;4.90;;;;;;;15.15;100.00;101604.38;4896041;29;20048;-60
2022/08/21 05:03:32;;;;;;;9.07;5.57;;;;;;;15.12;100.00;101607.34;4905814;29;20058;-60
2022/08/21 05:06:00;;;;;;;8.63;5.03;;;;;;;15.15;100.00;101601.75;4887250;29;20056;-60
2022/08/21 05:08:27;;;;;;;6.25;4.35;;;;;;;15.16;100.00;101603.38;4895864;29;20162;-60
2022/08/21 05:10:54;;;;;;;6.20;4.35;;;;;;;15.20;100.00;101603.91;4891101;29;20430;-60
2022/08/21 05:13:26;;;;;;;9.45;4.85;;;;;;;15.18;100.00;101605.88;4907911;29;20759;-60
2022/08/21 05:15:53;;;;;;;7.05;4.75;;;;;;;15.18;100.00;101611.16;4897483;29;20520;-62
2022/08/21 05:18:19;;;;;;;8.18;5.43;;;;;;;15.23;100.00;101614.19;4901098;29;20060;-59
2022/08/21 05:20:45;;;;;;;7.38;4.72;;;;;;;15.25;100.00;101619.28;4898096;29;20065;-61
2022/08/21 05:23:13;;;;;;;7.63;5.38;;;;;;;15.28;100.00;101611.88;4902375;29;20706;-61
2022/08/21 05:25:41;;;;;;;11.67;5.67;;;;;;;15.29;100.00;101616.19;4908013;29;20048;-60
2022/08/21 05:28:07;;;;;;;8.68;5.72;;;;;;;15.30;100.00;101624.94;4888511;29;20482;-59
2022/08/21 05:30:34;;;;;;;7.88;5.22;;;;;;;15.33;100.00;101619.34;4900621;29;20048;-61
2022/08/21 05:33:04;;;;;;;8.27;5.25;;;;;;;15.38;100.00;101624.97;4887966;29;20051;-60
2022/08/21 05:35:32;;;;;;;7.68;5.30;;;;;;;15.40;100.00;101634.38;4898920;29;20060;-60
2022/08/21 05:37:59;;;;;;;6.72;5.65;;;;;;;15.42;100.00;101632.41;4898605;29;20063;-59
2022/08/21 05:40:26;;;;;;;11.73;5.87;;;;;;;15.46;100.00;101640.84;4907424;29;20067;-60
2022/08/21 05:42:55;;;;;;;8.48;5.85;;;;;;;15.52;100.00;101642.03;4902361;29;20063;-61
2022/08/21 05:45:23;;;;;;;;;;;;;;;15.61;100.00;101638.44;4899978;29;20151;-60
2022/08/21 05:48:20;;;;;;;11.80;5.97;;;;;;;15.68;100.00;101635.97;4887635;29;20047;-60
2022/08/21 05:50:49;;;;;;;9.48;6.20;;;;;;;15.65;100.00;101637.13;4894100;29;20052;-61
2022/08/21 05:53:17;;;;;;;12.80;6.75;;;;;;;15.70;100.00;101647.22;4899313;29;20128;-59
2022/08/21 05:55:44;;;;;;;9.00;5.88;;;;;;;15.74;100.00;101641.50;4888987;29;20064;-60
2022/08/21 05:58:14;;;;;;;14.23;7.18;;;;;;;15.78;100.00;101645.50;4905015;29;20059;-60
2022/08/21 06:00:42;;;;;;;12.80;7.95;;;;;;;15.78;100.00;101644.66;4883791;29;20052;-62
2022/08/21 06:03:21;;;;;;;12.77;8.50;;;;;;;15.88;100.00;101645.34;4893447;29;20056;-60
2022/08/21 06:05:47;;;;;;;13.38;9.40;;;;;;;15.86;100.00;101638.56;4901943;29;20063;-60
2022/08/21 06:08:16;;;;;;;14.15;9.60;;;;;;;15.91;100.00;101637.06;4897965;29;20063;-60
2022/08/21 06:10:43;;;;;;;12.25;8.93;;;;;;;15.96;100.00;101626.84;4899532;29;20605;-62
2022/08/21 06:13:10;;;;;;;16.02;9.32;;;;;;;15.99;100.00;101631.84;4901866;29;20135;-59
2022/08/21 06:15:37;;;;;;;17.98;10.40;;;;;;;16.04;100.00;101627.88;4903259;29;20525;-57
2022/08/21 06:18:04;;;;;;;15.90;10.48;;;;;;;16.07;100.00;101627.53;4890287;29;20062;-62
2022/08/21 06:20:31;;;;;;;16.27;10.50;;;;;;;16.07;100.00;101628.34;4906782;29;20048;-60
2022/08/21 06:22:58;;;;;;;17.52;10.40;;;;;;;16.13;100.00;101632.16;4905226;29;20056;-59
2022/08/21 06:25:25;;;;;;;16.80;10.85;;;;;;;16.15;100.00;101630.19;4915921;29;20059;-60
2022/08/21 06:27:52;;;;;;;16.52;9.73;;;;;;;16.24;100.00;101631.03;4906105;29;20052;-59
2022/08/21 06:30:19;;;;;;;19.13;10.27;;;;;;;16.29;100.00;101629.56;4889704;29;20056;-59
2022/08/21 06:32:45;;;;;;;20.55;10.23;;;;;;;16.31;100.00;101635.50;4894935;29;20057;-59
2022/08/21 06:35:11;;;;;;;18.48;9.38;;;;;;;16.36;100.00;101633.19;4884369;29;20359;-59
2022/08/21 06:37:38;;;;;;;15.63;9.52;;;;;;;16.38;100.00;101641.78;4892276;29;20053;-59
2022/08/21 06:40:06;;;;;;;15.95;8.43;;;;;;;16.41;100.00;101638.81;4893050;29;20056;-60
2022/08/21 06:42:38;;;;;;;14.70;8.82;;;;;;;16.46;100.00;101637.50;4895918;29;20056;-59
2022/08/21 06:45:07;;;;;;;18.48;8.63;;;;;;;16.54;100.00;101637.50;4900775;29;20151;-59
2022/08/21 06:47:33;;;;;;;15.20;8.70;;;;;;;16.57;100.00;101643.28;4902186;29;20056;-59
2022/08/21 06:50:00;;;;;;;16.55;8.63;;;;;;;16.59;100.00;101633.34;4904194;29;20434;-60
2022/08/21 06:52:26;;;;;;;14.60;7.72;;;;;;;16.63;100.00;101631.19;4898757;29;20055;-59
2022/08/21 06:54:52;;;;;;;14.18;8.32;;;;;;;16.71;100.00;101638.31;4904268;29;20052;-59
2022/08/21 06:57:19;;;;;;;16.08;8.50;;;;;;;16.75;100.00;101637.81;4902838;29;20059;-59
2022/08/21 06:59:45;;;;;;;14.18;8.75;;;;;;;16.81;100.00;101628.38;4892629;29;20506;-58
2022/08/21 07:02:11;;;;;;;18.17;8.55;;;;;;;16.91;100.00;101634.34;4904173;29;20080;-60
2022/08/21 07:04:38;;;;;;;19.33;7.75;;;;;;;16.96;100.00;101633.84;4902126;29;20056;-60
2022/08/21 07:07:04;;;;;;;12.25;7.63;;;;;;;17.01;100.00;101644.75;4905588;29;20059;-59
2022/08/21 07:09:31;;;;;;;16.23;7.57;;;;;;;17.09;100.00;101635.97;4902900;29;20429;-59
2022/08/21 07:11:57;;;;;;;15.70;7.70;;;;;;;17.14;100.00;101639.75;4900848;29;20059;-59
2022/08/21 07:14:24;;;;;;;17.65;8.15;;;;;;;17.17;100.00;101634.13;4907052;29;20168;-60
2022/08/21 07:16:51;;;;;;;17.00;8.02;;;;;;;17.28;100.00;101637.41;4898703;29;20056;-59
2022/08/21 07:19:17;;;;;;;14.82;7.35;;;;;;;17.36;100.00;101630.25;4903335;29;20048;-59
2022/08/21 07:21:44;;;;;;;14.85;7.70;;;;;;;17.42;100.00;101630.56;4900237;29;20149;-60
2022/08/21 07:24:11;;;;;;;18.33;8.00;;;;;;;17.45;100.00;101630.22;4905675;29;20060;-59
2022/08/21 07:26:38;;;;;;;14.48;7.47;;;;;;;17.50;100.00;101639.31;4897298;29;20164;-59
2022/08/21 07:29:05;;;;;;;14.73;7.20;;;;;;;17.53;100.00;101631.00;4908132;29;20056;-59
2022/08/21 07:31:32;;;;;;;14.50;7.35;;;;;;;17.59;100.00;101627.66;4908156;29;20056;-60
2022/08/21 07:33:58;;;;;;;14.93;7.63;;;;;;;17.66;100.00;101629.63;4893825;29;20508;-60
2022/08/21 07:36:25;;;;;;;15.60;7.70;;;;;;;17.75;100.00;101626.75;4903669;29;20048;-59
2022/08/21 07:38:52;;;;;;;16.95;7.50;;;;;;;17.77;100.00;101622.09;4886542;29;20052;-60
2022/08/21 07:41:25;;;;;;;13.13;6.03;;;;;;;17.94;100.00;101622.06;4898825;29;20077;-60
2022/08/21 07:43:52;;;;;;;18.90;7.50;;;;;;;17.98;100.00;101626.81;4900002;29;20106;-60
2022/08/21 07:46:19;;;;;;;16.67;7.78;;;;;;;18.00;100.00;101624.00;4906135;29;20140;-59
2022/08/21 07:48:46;;;;;;;16.70;8.20;;;;;;;18.04;100.00;101624.47;4903473;29;20060;-61
2022/08/21 07:51:14;;;;;;;15.70;7.60;;;;;;;18.20;100.00;101627.00;4900278;29;20060;-59
2022/08/21 07:53:41;;;;;;;15.82;7.35;;;;;;;18.25;100.00;101616.69;4903324;29;20056;-59
2022/08/21 07:56:10;;;;;;;13.68;7.15;;;;;;;18.37;100.00;101641.00;4888067;29;20541;-60
2022/08/21 07:58:37;;;;;;;20.45;7.45;;;;;;;18.37;100.00;101622.41;4907482;29;20060;-59
2022/08/21 08:01:05;;;;;;;18.70;7.78;;;;;;;18.45;100.00;101629.50;4897627;29;20056;-59
2022/08/21 08:03:32;;;;;;;12.05;7.43;;;;;;;18.47;100.00;101620.34;4907716;29;20404;-59
2022/08/21 08:05:58;;;;;;;13.90;6.95;;;;;;;18.51;100.00;101621.63;4905654;29;20058;-59
2022/08/21 08:08:26;;;;;;;15.35;7.28;;;;;;;18.56;100.00;101618.41;4892198;29;20056;-60
2022/08/21 08:10:53;;;;;;;16.20;7.78;;;;;;;18.67;100.00;101618.00;4900526;29;20417;-60
2022/08/21 08:13:20;;;;;;;19.50;6.93;;;;;;;18.73;100.00;101624.41;4894820;28;20995;-62
2022/08/21 08:15:48;;;;;;;11.60;6.30;;;;;;;18.97;100.00;101620.72;4900405;29;20063;-61
2022/08/21 08:18:15;;;;;;;18.67;7.68;;;;;;;19.07;100.00;101623.94;4898551;29;20060;-60
2022/08/21 08:20:42;;;;;;;15.15;7.65;;;;;;;19.35;100.00;101618.78;4902621;29;20512;-63
2022/08/21 08:23:13;;;;;;;16.60;6.82;;;;;;;19.75;100.00;101621.13;4899193;29;20505;-62
2022/08/21 08:25:39;;;;;;;14.98;7.35;;;;;;;20.04;100.00;101612.22;4904273;29;20056;-62
2022/08/21 08:28:07;;;;;;;17.00;6.57;;;;;;;20.31;100.00;101617.81;4900253;29;20083;-61
2022/08/21 08:30:43;;;;;;;15.20;5.72;;;;;;;20.32;100.00;101614.13;4900775;29;20516;-62
2022/08/21 08:33:10;;;;;;;14.93;6.32;;;;;;;20.54;100.00;101607.75;4895845;29;20064;-62
2022/08/21 08:35:37;;;;;;;15.23;6.20;;;;;;;20.82;100.00;101617.63;4894380;29;20102;-63
2022/08/21 08:38:04;;;;;;;15.73;6.53;;;;;;;20.94;100.00;101604.56;4909195;29;20059;-61
2022/08/21 08:40:44;;;;;;;13.07;5.77;;;;;;;21.09;100.00;101609.75;4900544;29;20130;-60
2022/08/21 08:43:12;;;;;;;13.80;5.57;;;;;;;21.32;100.00;101615.63;4904184;29;20096;-62
2022/08/21 08:45:48;;;;;;;18.42;7.03;;;;;;;21.48;100.00;101606.50;4908390;29;20096;-62
2022/08/21 08:48:31;;;;;;;13.75;5.68;;;;;;;21.66;100.00;101602.44;4894485;29;20055;-62
2022/08/21 08:51:01;;;;;;;13.93;4.97;;;;;;;21.78;100.00;101598.19;4898590;29;20052;-61
2022/08/21 08:53:32;;;;;;;13.98;5.43;;;;;;;21.87;100.00;101596.94;4899565;29;20059;-61
2022/08/21 08:56:04;;;;;;;17.40;5.70;;;;;;;22.01;100.00;101589.81;4904907;29;20107;-60
2022/08/21 08:58:39;;;;;;;16.85;6.18;;;;;;;21.92;99.51;101593.69;4895266;29;20078;-60
2022/08/21 09:01:18;;;;;;;14.35;4.80;;;;;;;21.99;100.00;101585.66;4896692;29;20055;-60
2022/08/21 09:03:49;;;;;;;16.92;5.20;;;;;;;22.19;99.99;101597.22;4885607;29;20060;-60
2022/08/21 09:06:28;;;;;;;13.10;5.53;;;;;;;22.08;98.02;101593.28;4907592;29;20056;-61
2022/08/21 09:09:20;;;;;;;11.70;4.78;;;;;;;22.33;97.84;101592.72;4897391;29;20044;-62
2022/08/21 09:11:59;;;;;;;10.52;4.30;;;;;;;22.58;92.31;101589.41;4905720;29;20383;-61
2022/08/21 09:14:41;;;;;;;15.02;4.20;;;;;;;22.68;92.82;101596.00;4901228;29;20055;-61
2022/08/21 09:17:19;;;;;;;11.88;3.72;;;;;;;22.87;90.79;101594.31;4898435;29;20060;-63
2022/08/21 09:20:08;;;;;;;12.88;4.13;;;;;;;22.86;89.87;101583.81;4908699;29;20051;-62
2022/08/21 09:22:56;;;;;;;11.55;3.72;;;;;;;22.91;87.96;101589.34;4904769;29;20060;-62
2022/08/21 09:25:26;;;;;;;13.55;3.38;;;;;;;23.26;85.53;101578.34;4905400;29;20052;-62
2022/08/21 09:27:53;;;;;;;11.60;3.58;;;;;;;23.61;87.28;101575.31;4902694;29;20051;-62
2022/08/21 09:30:28;;;;;;;11.10;3.78;;;;;;;23.50;83.22;101579.47;4900995;29;21009;-62
2022/08/21 09:32:55;;;;;;;12.18;3.58;;;;;;;23.62;82.05;101575.09;4894784;29;20048;-62
2022/08/21 09:35:23;;;;;;;12.85;3.17;;;;;;;23.85;81.27;101568.38;4904846;29;20099;-61
2022/08/21 09:37:57;;;;;;;15.25;3.70;;;;;;;24.05;81.32;101573.59;4893706;29;20058;-63
2022/08/21 09:40:40;;;;;;;9.75;3.30;;;;;;;24.31;80.32;101569.06;4894443;29;20052;-62
2022/08/21 09:43:24;;;;;;;10.38;3.45;;;;;;;24.32;80.64;101579.56;4893865;29;20115;-61
2022/08/21 09:46:06;;;;;;;8.55;2.80;;;;;;;24.18;75.83;101583.41;4893621;29;20057;-61
2022/08/21 09:48:49;;;;;;;10.50;2.65;;;;;;;24.26;77.23;101581.25;4897070;29;20594;-61
2022/08/21 09:51:21;;;;;;;11.52;3.67;;;;;;;24.35;75.85;101579.13;4900006;29;20522;-61
2022/08/21 09:53:53;;;;;;;9.23;2.40;;;;;;;24.74;77.00;101573.66;4897941;29;20060;-60
2022/08/21 09:59:26;;;;;;;10.95;3.35;;;;;;;24.39;73.87;101576.84;4899869;29;20055;-61
2022/08/21 10:01:54;;;;;;;7.97;2.55;;;;;;;24.22;75.72;101579.25;4899936;29;20055;-61
2022/08/21 10:04:28;;;;;;;7.35;2.47;;;;;;;24.35;74.02;101583.69;4903332;29;20505;-60
2022/08/21 10:07:07;;;;;;;9.68;2.50;;;;;;;24.28;74.19;101581.03;4892747;29;20052;-60
2022/08/21 10:09:33;;;;;;;9.15;2.13;;;;;;;24.14;72.11;101582.19;4906783;29;20104;-61
2022/08/21 10:12:23;;;;;;;8.70;2.45;;;;;;;24.28;72.15;101583.72;4887345;29;20056;-61
2022/08/21 10:15:03;;;;;;;8.27;2.47;;;;;;;24.19;72.86;101579.69;4890220;29;20083;-61
2022/08/21 10:17:58;;;;;;;8.45;2.55;;;;;;;24.33;72.38;101581.22;4896594;29;20048;-61
2022/08/21 10:20:43;;;;;;;7.43;2.13;;;;;;;24.57;72.72;101576.06;4906803;29;20477;-62
2022/08/21 10:23:16;;;;;;;7.45;2.28;;;;;;;24.70;71.93;101583.16;4900219;29;20087;-61
2022/08/21 10:26:05;;;;;;;9.82;2.47;;;;;;;24.56;72.14;101583.31;4895172;29;20043;-61
2022/08/21 10:28:59;;;;;;;8.57;2.45;;;;;;;24.92;68.74;101581.69;4885419;29;20056;-60
2022/08/21 10:31:58;;;;;;;9.95;2.40;;;;;;;25.07;69.80;101570.59;4894751;29;20056;-61
2022/08/21 10:34:24;;;;;;;7.90;1.83;;;;;;;25.18;71.50;101571.69;4892211;29;20086;-60
2022/08/21 10:37:45;;;;;;;6.88;1.80;;;;;;;25.55;68.08;101567.09;4906609;29;20064;-60
2022/08/21 10:40:48;;;;;;;7.22;1.88;;;;;;;25.47;65.00;101561.22;4803352;29;20062;-60
2022/08/21 10:43:27;;;;;;;7.68;1.83;;;;;;;25.47;64.19;101570.09;4806402;29;20520;-60
2022/08/21 10:46:11;;;;;;;7.03;1.95;;;;;;;25.72;64.74;101569.09;4796522;29;20058;-60
2022/08/21 10:49:01;;;;;;;7.95;1.80;;;;;;;25.50;65.75;101571.50;4798588;29;20492;-60
2022/08/21 10:51:33;;;;;;;6.63;2.00;;;;;;;25.15;67.18;101580.16;4786474;29;20064;-61
2022/08/21 10:54:10;;;;;;;10.05;1.92;;;;;;;25.38;68.27;101583.00;4803726;29;20054;-61
2022/08/21 10:56:41;;;;;;;12.77;2.30;;;;;;;25.49;67.76;101570.69;4806434;29;20195;-60
2022/08/21 10:59:26;;;;;;;9.60;2.33;;;;;;;25.80;66.87;101572.31;4802554;29;20085;-61
2022/08/21 11:02:13;;;;;;;9.05;2.10;;;;;;;25.90;63.72;101566.38;4809027;29;20058;-61
2022/08/21 11:04:56;;;;;;;10.80;2.17;;;;;;;25.93;62.91;101570.47;4806160;29;20100;-61
2022/08/21 11:07:30;;;;;;;8.00;2.10;;;;;;;25.69;63.69;101566.91;4808032;29;20064;-62
2022/08/21 11:10:25;;;;;;;8.52;1.90;;;;;;;25.76;65.15;101573.81;4796074;29;20533;-61
2022/08/21 11:13:01;;;;;;;6.10;1.98;;;;;;;25.93;64.35;101573.16;4806689;29;20054;-61
2022/08/21 11:15:51;;;;;;;6.32;1.88;;;;;;;26.02;66.24;101571.78;4888055;29;20053;-60
2022/08/21 11:18:26;;;;;;;8.00;2.28;;;;;;;26.31;66.63;101569.25;4896678;29;20056;-61
2022/08/21 11:21:08;;;;;;;5.97;1.88;;;;;;;26.51;63.03;101571.59;4887385;29;20075;-60
2022/08/21 11:23:57;;;;;;;6.32;1.67;;;;;;;26.81;62.37;101561.53;4889124;29;20054;-61
2022/08/21 11:26:47;;;;;;;9.73;2.20;;;;;;;26.74;59.71;101563.53;4888847;29;20425;-61
2022/08/21 11:29:35;;;;;;;8.85;2.13;;;;;;;26.81;59.56;101563.38;4894887;29;20076;-61
2022/08/21 11:32:35;;;;;;;8.98;2.17;;;;;;;26.97;60.52;101553.75;4887344;29;20052;-60
2022/08/21 11:35:29;;;;;;;7.82;1.92;;;;;;;27.15;60.43;101558.16;4889224;29;20058;-61
2022/08/21 11:38:24;;;;;;;9.85;1.80;;;;;;;27.48;59.90;101549.41;4889759;29;20048;-60